createdAt,value
2022-10-03T00:00:11.597Z,9.05
2022-10-03T00:04:43.746Z,4.18
2022-10-03T00:08:55.586Z,4.65
2022-10-03T00:13:19.882Z,6.07
2022-10-03T00:17:31.719Z,7.75
2022-10-03T00:22:01.826Z,9.73
2022-10-03T00:26:27.329Z,5.45
2022-10-03T00:30:42.736Z,6.00
2022-10-03T00:34:51.194Z,9.38
2022-10-03T00:39:12.117Z,7.38
2022-10-03T00:43:56.435Z,6.05
2022-10-03T00:48:20.472Z,5.78
2022-10-03T00:52:45.334Z,5.95
2022-10-03T00:56:57.831Z,6.97
2022-10-03T01:01:20.743Z,7.10
2022-10-03T01:05:41.269Z,11.35
2022-10-03T01:09:56.028Z,8.63
2022-10-03T01:14:27.263Z,6.65
2022-10-03T01:18:45.637Z,10.75
2022-10-03T01:23:12.402Z,10.73
2022-10-03T01:27:26.686Z,9.20
2022-10-03T01:31:57.399Z,6.90
2022-10-03T01:36:12.118Z,6.45
2022-10-03T01:40:40.897Z,7.35
2022-10-03T01:45:08.809Z,10.80
2022-10-03T01:49:19.861Z,5.28
2022-10-03T01:54:13.541Z,6.18
2022-10-03T01:58:56.754Z,7.25
2022-10-03T02:03:14.563Z,7.85
2022-10-03T02:07:49.189Z,10.10
2022-10-03T02:11:52.238Z,5.68
2022-10-03T02:16:21.324Z,7.47
2022-10-03T02:20:43.354Z,5.47
2022-10-03T02:24:57.442Z,10.13
2022-10-03T02:29:13.798Z,7.28
2022-10-03T02:33:37.964Z,8.57
2022-10-03T02:38:15.582Z,4.68
2022-10-03T02:42:45.828Z,5.47
2022-10-03T02:47:00.873Z,11.98
2022-10-03T02:51:37.017Z,6.47
2022-10-03T03:00:09.509Z,9.93
2022-10-03T03:04:21.167Z,8.63
2022-10-03T03:08:24.841Z,4.40
2022-10-03T03:12:51.641Z,7.10
2022-10-03T03:17:19.440Z,5.95
2022-10-03T03:21:53.178Z,8.73
2022-10-03T03:26:18.540Z,10.60
2022-10-03T03:30:25.601Z,7.70
2022-10-03T03:34:49.515Z,7.30
2022-10-03T03:39:18.919Z,8.05
2022-10-03T03:43:44.695Z,7.03
2022-10-03T03:47:59.892Z,8.63
2022-10-03T03:52:35.099Z,7.82
2022-10-03T03:56:43.777Z,12.00
2022-10-03T04:01:21.253Z,8.63
2022-10-03T04:05:50.604Z,6.50
2022-10-03T04:10:27.697Z,10.20
2022-10-03T04:14:58.903Z,9.40
2022-10-03T04:19:12.677Z,9.85
2022-10-03T04:23:34.073Z,9.65
2022-10-03T04:27:44.525Z,4.40
2022-10-03T04:32:22.162Z,6.15
2022-10-03T04:36:43.610Z,9.13
2022-10-03T04:41:12.426Z,8.23
2022-10-03T04:45:28.806Z,7.13
2022-10-03T04:49:42.640Z,6.75
2022-10-03T04:54:06.740Z,6.22
2022-10-03T04:58:30.546Z,8.93
2022-10-03T05:02:58.155Z,6.13
2022-10-03T05:07:19.876Z,7.07
2022-10-03T05:11:59.594Z,6.03
2022-10-03T05:16:14.228Z,11.00
2022-10-03T06:07:31.031Z,12.30
2022-10-03T06:11:40.813Z,7.68
2022-10-03T06:15:55.868Z,6.80
2022-10-03T06:20:47.735Z,11.90
2022-10-03T06:24:58.468Z,8.15
2022-10-03T06:29:36.960Z,10.07
2022-10-03T06:34:02.122Z,10.93
2022-10-03T06:38:15.961Z,9.82
2022-10-03T06:42:31.748Z,10.05
2022-10-03T06:46:59.942Z,11.48
2022-10-03T06:51:40.246Z,9.98
2022-10-03T06:55:50.823Z,10.57
2022-10-03T07:00:17.444Z,9.45
2022-10-03T07:04:55.038Z,11.05
2022-10-03T07:09:36.155Z,11.70
2022-10-03T07:18:37.975Z,11.23
2022-10-03T07:23:09.187Z,7.65
2022-10-03T07:27:33.854Z,7.72
2022-10-03T07:31:40.617Z,5.00
2022-10-03T07:36:51.083Z,6.15
2022-10-03T07:41:06.328Z,8.98
2022-10-03T07:45:52.078Z,16.10
2022-10-03T07:50:18.153Z,15.00
2022-10-03T07:54:37.730Z,13.60
2022-10-03T07:59:25.011Z,15.57
2022-10-03T08:03:46.866Z,15.25
2022-10-03T08:08:37.970Z,12.02
2022-10-03T08:13:31.163Z,12.10
2022-10-03T08:17:57.302Z,14.82
2022-10-03T08:22:09.645Z,9.82
2022-10-03T08:32:26.903Z,9.13
2022-10-03T08:57:30.792Z,10.67
2022-10-03T09:26:19.691Z,8.13
2022-10-03T09:36:25.191Z,7.47
2022-10-03T09:55:02.203Z,7.20
2022-10-03T09:59:41.541Z,6.45
2022-10-03T10:04:55.205Z,8.23
2022-10-03T10:27:42.217Z,3.92
2022-10-03T11:03:01.098Z,4.45
2022-10-03T11:07:38.596Z,4.63
2022-10-03T11:12:17.981Z,4.47
2022-10-03T11:27:09.129Z,6.93
2022-10-03T11:31:29.264Z,5.47
2022-10-03T11:41:20.753Z,3.35
2022-10-03T12:12:00.491Z,3.15
2022-10-03T13:00:36.773Z,3.47
2022-10-03T13:05:06.829Z,4.88
2022-10-03T13:09:28.755Z,7.75
2022-10-03T13:13:57.559Z,7.13
2022-10-03T13:18:44.583Z,3.30
2022-10-03T13:23:33.765Z,4.35
2022-10-03T13:28:05.127Z,5.47
2022-10-03T13:32:46.346Z,4.63
2022-10-03T13:37:39.889Z,2.80
2022-10-03T13:47:23.173Z,4.22
2022-10-03T13:51:53.676Z,4.22
2022-10-03T13:56:41.140Z,3.25
2022-10-03T14:24:56.885Z,4.72
2022-10-03T14:31:05.957Z,4.72
2022-10-03T15:01:48.917Z,4.65
2022-10-03T15:12:21.778Z,2.67
2022-10-03T15:40:09.485Z,5.57
2022-10-03T15:44:47.174Z,4.60
2022-10-03T15:53:36.987Z,3.05
2022-10-03T15:57:48.230Z,3.67
2022-10-03T16:01:54.878Z,4.45
2022-10-03T16:06:48.589Z,3.75
2022-10-03T16:11:15.381Z,3.83
2022-10-03T16:15:18.280Z,6.53
2022-10-03T16:19:58.460Z,4.32
2022-10-03T16:24:07.182Z,3.95
2022-10-03T16:32:39.268Z,4.35
2022-10-03T16:36:50.496Z,3.28
2022-10-03T16:41:33.276Z,6.38
2022-10-03T16:45:42.122Z,5.13
2022-10-03T16:50:15.644Z,3.75
2022-10-03T16:54:20.558Z,3.35
2022-10-03T16:58:33.584Z,5.53
2022-10-03T17:02:39.087Z,5.35
2022-10-03T17:06:48.357Z,5.05
2022-10-03T17:10:58.385Z,8.10
2022-10-03T17:15:09.190Z,3.53
2022-10-03T17:19:34.683Z,5.68
2022-10-03T17:23:50.493Z,6.07
2022-10-03T17:27:55.028Z,5.18
2022-10-03T17:32:37.539Z,4.47
2022-10-03T17:37:07.531Z,3.28
2022-10-03T17:41:18.969Z,4.27
2022-10-03T18:56:48.737Z,4.75
2022-10-03T19:01:06.603Z,4.85
2022-10-03T19:05:28.241Z,4.05
2022-10-03T19:09:40.008Z,5.55
2022-10-03T19:13:54.231Z,5.53
2022-10-03T19:18:21.862Z,6.95
2022-10-03T19:22:34.329Z,5.03
2022-10-03T19:26:38.381Z,4.03
2022-10-03T19:30:43.263Z,3.00
2022-10-03T19:34:48.717Z,4.75
2022-10-03T19:38:54.550Z,5.45
2022-10-03T19:43:05.444Z,6.70
2022-10-03T19:47:22.302Z,8.13
2022-10-03T19:51:27.028Z,8.45
2022-10-03T19:55:32.968Z,7.72
2022-10-03T19:59:58.604Z,4.93
2022-10-03T20:04:01.600Z,8.07
2022-10-03T20:08:30.452Z,8.93
2022-10-03T20:12:40.338Z,5.78
2022-10-03T20:16:49.098Z,5.75
2022-10-03T20:20:54.991Z,8.50
2022-10-03T20:24:59.705Z,5.83
2022-10-03T20:29:14.603Z,5.25
2022-10-03T20:33:23.538Z,6.45
2022-10-03T20:37:39.576Z,7.45
2022-10-03T20:45:59.318Z,5.78
2022-10-03T20:50:43.356Z,5.75
2022-10-03T20:54:57.900Z,7.50
2022-10-03T20:59:05.724Z,6.40
2022-10-03T21:03:17.328Z,6.28
2022-10-03T21:07:32.477Z,8.25
2022-10-03T21:11:39.731Z,6.03
2022-10-03T21:15:47.883Z,5.75
2022-10-03T21:20:03.702Z,8.35
2022-10-03T21:24:11.530Z,5.40
2022-10-03T21:28:32.199Z,5.97
2022-10-03T21:33:03.146Z,5.30
2022-10-03T21:37:28.673Z,6.75
2022-10-03T21:41:47.105Z,5.17
2022-10-03T21:46:27.457Z,5.43
2022-10-03T21:50:36.865Z,7.50
2022-10-03T21:54:48.439Z,6.68
2022-10-03T21:59:19.061Z,6.25
2022-10-03T22:03:25.835Z,5.18
2022-10-03T22:07:42.859Z,6.60
2022-10-03T22:11:53.031Z,7.90
2022-10-03T22:16:30.622Z,5.35
2022-10-03T22:20:35.527Z,6.53
2022-10-03T22:24:48.985Z,6.32
2022-10-03T22:29:04.580Z,5.45
2022-10-03T22:33:23.397Z,4.50
2022-10-03T22:37:27.022Z,4.78
2022-10-03T22:41:31.238Z,6.75
2022-10-03T22:45:40.419Z,6.82
2022-10-03T22:49:47.510Z,6.43
2022-10-03T22:53:58.455Z,6.53
2022-10-03T22:58:02.511Z,8.77
2022-10-03T23:02:09.390Z,5.68
2022-10-03T23:06:38.292Z,5.05
2022-10-03T23:11:01.368Z,5.13
2022-10-03T23:15:06.656Z,10.25
2022-10-03T23:20:06.431Z,8.52
2022-10-03T23:24:39.397Z,6.78
2022-10-03T23:29:00.729Z,6.57
2022-10-03T23:33:03.951Z,6.28
2022-10-03T23:37:15.743Z,7.28
2022-10-03T23:41:38.985Z,8.48
2022-10-03T23:45:43.682Z,9.68
2022-10-03T23:49:48.569Z,6.03
2022-10-03T23:53:54.313Z,6.65
2022-10-03T23:57:57.830Z,7.37
